Terminal Aerodrome Forecast
Issued by NWS Detroit/Pontiac, MI

Home | Current Version | Previous Version | Text Only | Print | Product List | Glossary On
Versions: 1 2 3 4 5 6 7 8 9 10 11 12 13 14 15 16 17 18 19 20 21 22 23 24
000
FTUS43 KDTX 292003 AAA
TAFDTW
TAF AMD
KDTW 292003Z 2920/3024 06008KT P6SM SCT040 BKN080
      TEMPO 2921/2922 05012G18KT 3SM TSRA OVC030CB
     FM300000 04006KT P6SM VCSH SCT050 BKN100
     FM301200 06010KT P6SM FEW040 SCT080 BKN150=

USA.gov is the U.S. government's official web portal to all federal, state and local government web resources and services.